createdAt,value
2023-04-25T00:01:57.624Z,12.60
2023-04-25T00:04:26.810Z,12.20
2023-04-25T00:06:55.287Z,11.20
2023-04-25T00:09:23.261Z,11.90
2023-04-25T00:11:50.867Z,11.40
2023-04-25T00:14:18.776Z,11.00
2023-04-25T00:16:46.420Z,10.90
2023-04-25T00:19:14.653Z,10.60
2023-04-25T00:21:42.690Z,10.30
2023-04-25T00:24:10.324Z,10.20
2023-04-25T00:26:37.939Z,10.30
2023-04-25T00:29:05.559Z,10.20
2023-04-25T00:31:33.225Z,10.70
2023-04-25T00:34:01.027Z,8.50
2023-04-25T00:36:28.637Z,8.60
2023-04-25T00:38:56.808Z,8.80
2023-04-25T00:41:26.446Z,8.50
2023-04-25T00:43:55.914Z,9.10
2023-04-25T00:46:23.619Z,8.80
2023-04-25T00:48:51.935Z,7.40
2023-04-25T00:51:21.686Z,8.40
2023-04-25T00:53:51.122Z,7.40
2023-04-25T00:56:19.434Z,8.40
2023-04-25T00:58:47.161Z,8.10
2023-04-25T01:01:14.884Z,8.30
2023-04-25T01:03:43.861Z,8.20
2023-04-25T01:06:12.038Z,7.70
2023-04-25T01:08:40.143Z,9.00
2023-04-25T01:11:08.364Z,9.00
2023-04-25T01:13:36.104Z,9.00
2023-04-25T01:16:05.911Z,9.00
2023-04-25T01:18:34.129Z,9.70
2023-04-25T01:21:15.777Z,9.20
2023-04-25T01:23:43.945Z,9.90
2023-04-25T01:26:13.012Z,9.90
2023-04-25T01:28:44.064Z,10.50
2023-04-25T01:31:13.152Z,10.50
2023-04-25T01:33:41.068Z,10.00
2023-04-25T01:36:08.966Z,11.50
2023-04-25T01:38:36.975Z,12.50
2023-04-25T01:41:04.909Z,11.40
2023-04-25T01:43:32.565Z,12.40
2023-04-25T01:46:00.701Z,12.30
2023-04-25T01:48:28.738Z,12.10
2023-04-25T01:50:56.835Z,12.60
2023-04-25T01:53:24.937Z,12.60
2023-04-25T01:55:52.837Z,12.70
2023-04-25T01:58:23.032Z,12.50
2023-04-25T02:00:59.565Z,12.20
2023-04-25T02:03:28.709Z,13.10
2023-04-25T02:05:57.982Z,12.20
2023-04-25T02:08:27.739Z,12.60
2023-04-25T02:10:56.655Z,12.30
2023-04-25T02:13:25.720Z,12.80
2023-04-25T02:16:03.359Z,13.20
2023-04-25T02:18:32.467Z,13.00
2023-04-25T02:21:02.016Z,13.60
2023-04-25T02:23:29.984Z,14.00
2023-04-25T02:25:58.340Z,14.00
2023-04-25T02:28:27.018Z,15.10
2023-04-25T02:30:55.181Z,14.00
2023-04-25T02:33:22.856Z,13.70
2023-04-25T02:35:50.477Z,14.50
2023-04-25T02:38:18.075Z,14.70
2023-04-25T02:40:45.771Z,14.80
2023-04-25T02:43:13.459Z,15.20
2023-04-25T02:45:41.051Z,13.70
2023-04-25T02:48:08.742Z,13.80
2023-04-25T02:50:36.623Z,13.70
2023-04-25T02:53:04.369Z,12.50
2023-04-25T02:55:37.399Z,12.60
2023-04-25T02:58:06.034Z,11.80
2023-04-25T03:00:46.540Z,11.20
2023-04-25T03:03:14.839Z,11.30
2023-04-25T03:05:42.704Z,11.00
2023-04-25T03:08:10.679Z,10.30
2023-04-25T03:10:39.572Z,10.40
2023-04-25T03:13:09.312Z,9.60
2023-04-25T03:15:37.645Z,9.60
2023-04-25T03:18:05.365Z,8.80
2023-04-25T03:20:33.152Z,7.70
2023-04-25T03:23:00.815Z,7.40
2023-04-25T03:25:29.133Z,7.50
2023-04-25T03:27:56.748Z,7.10
2023-04-25T03:30:24.709Z,7.10
2023-04-25T03:32:52.631Z,7.30
2023-04-25T03:35:20.371Z,6.70
2023-04-25T03:37:48.051Z,6.90
2023-04-25T03:40:19.852Z,6.80
2023-04-25T03:43:08.319Z,7.20
2023-04-25T03:45:36.769Z,7.50
2023-04-25T03:48:04.989Z,8.10
2023-04-25T03:50:32.781Z,7.80
2023-04-25T03:53:00.638Z,8.60
2023-04-25T03:55:30.874Z,8.80
2023-04-25T03:57:59.529Z,9.00
2023-04-25T04:00:27.299Z,8.70
2023-04-25T04:02:55.398Z,7.30
2023-04-25T04:05:24.386Z,7.70
2023-04-25T04:07:56.168Z,6.40
2023-04-25T04:10:24.287Z,6.40
2023-04-25T04:12:51.918Z,6.10
2023-04-25T04:15:19.628Z,6.80
2023-04-25T04:17:49.507Z,6.90
2023-04-25T04:20:17.212Z,6.30
2023-04-25T04:22:44.857Z,6.10
2023-04-25T04:25:14.991Z,5.40
2023-04-25T04:28:04.518Z,6.30
2023-04-25T04:30:42.282Z,5.80
2023-04-25T04:33:10.270Z,6.60
2023-04-25T04:35:38.337Z,6.30
2023-04-25T04:38:06.277Z,5.30
2023-04-25T04:40:35.843Z,5.40
2023-04-25T04:43:15.866Z,4.50
2023-04-25T04:46:05.045Z,4.50
2023-04-25T04:48:41.161Z,4.60
2023-04-25T04:51:35.094Z,4.30
2023-04-25T04:54:10.505Z,4.10
2023-04-25T04:57:12.029Z,4.50
2023-04-25T04:59:52.438Z,4.00
2023-04-25T05:02:40.028Z,4.20
2023-04-25T05:05:28.214Z,4.10
2023-04-25T05:08:19.044Z,4.20
2023-04-25T05:10:57.944Z,3.70
2023-04-25T05:13:35.372Z,3.80
2023-04-25T05:16:29.115Z,3.80
2023-04-25T05:19:08.556Z,4.00
2023-04-25T05:21:48.715Z,3.90
2023-04-25T05:24:31.919Z,4.00
2023-04-25T05:27:24.941Z,3.80
2023-04-25T05:30:15.971Z,3.50
2023-04-25T05:32:56.995Z,3.30
2023-04-25T05:35:25.126Z,3.40
2023-04-25T05:37:52.933Z,3.60
2023-04-25T05:40:25.131Z,3.70
2023-04-25T05:43:02.233Z,3.40
2023-04-25T05:45:43.600Z,3.50
2023-04-25T05:48:31.014Z,3.90
2023-04-25T05:51:21.168Z,3.40
2023-04-25T05:54:00.831Z,3.70
2023-04-25T05:56:28.886Z,3.50
2023-04-25T05:58:57.683Z,3.90
2023-04-25T06:01:25.354Z,3.70
2023-04-25T06:03:54.049Z,3.80
2023-04-25T06:09:52.109Z,3.50
2023-04-25T06:12:19.778Z,4.20
2023-04-25T06:14:48.010Z,3.70
2023-04-25T06:17:15.930Z,3.90
2023-04-25T06:19:43.543Z,3.60
2023-04-25T06:22:11.567Z,3.90
2023-04-25T06:24:40.765Z,4.60
2023-04-25T06:27:08.624Z,4.10
2023-04-25T06:29:36.311Z,3.60
2023-04-25T06:32:04.150Z,3.40
2023-04-25T06:34:32.163Z,3.90
2023-04-25T06:37:00.222Z,3.60
2023-04-25T06:39:27.909Z,3.60
2023-04-25T06:41:56.916Z,3.70
2023-04-25T06:44:42.950Z,3.20
2023-04-25T06:47:11.139Z,2.90
2023-04-25T06:49:39.335Z,3.50
2023-04-25T06:52:08.279Z,3.80
2023-04-25T06:54:35.895Z,3.70
2023-04-25T06:57:10.759Z,3.70
2023-04-25T06:59:38.670Z,3.60
2023-04-25T07:02:07.184Z,3.90
2023-04-25T07:04:35.679Z,3.40
2023-04-25T07:07:04.885Z,3.70
2023-04-25T07:09:41.008Z,3.70
2023-04-25T07:12:08.757Z,3.70
2023-04-25T07:14:36.625Z,3.40
2023-04-25T07:17:07.626Z,4.10
2023-04-25T07:19:37.738Z,4.10
2023-04-25T07:22:05.468Z,3.90
2023-04-25T07:24:33.435Z,3.60
2023-04-25T07:27:02.327Z,4.10
2023-04-25T07:29:42.927Z,4.00
2023-04-25T07:32:13.372Z,4.30
2023-04-25T07:34:43.660Z,4.30
2023-04-25T07:37:11.461Z,4.40
2023-04-25T07:39:47.948Z,4.70
2023-04-25T07:42:15.908Z,4.50
2023-04-25T07:44:44.944Z,4.50
2023-04-25T07:47:14.100Z,4.90
2023-04-25T07:49:43.142Z,4.80
2023-04-25T07:52:10.762Z,4.70
2023-04-25T07:54:39.159Z,4.70
2023-04-25T07:57:14.992Z,5.00
2023-04-25T07:59:43.057Z,5.10
2023-04-25T08:02:11.070Z,5.30
2023-04-25T08:04:40.412Z,5.20
2023-04-25T08:07:10.820Z,5.60
2023-04-25T08:09:50.699Z,5.80
2023-04-25T08:12:24.686Z,5.20
2023-04-25T08:14:52.603Z,4.40
2023-04-25T08:17:20.469Z,3.80
2023-04-25T08:19:48.146Z,4.00
2023-04-25T08:22:25.304Z,3.70
2023-04-25T08:24:57.457Z,3.70
2023-04-25T08:27:27.000Z,4.30
2023-04-25T08:29:54.876Z,4.90
2023-04-25T08:32:22.655Z,4.40
2023-04-25T08:35:17.855Z,4.30
2023-04-25T08:37:45.834Z,4.40
2023-04-25T08:40:16.598Z,4.20
2023-04-25T08:42:59.926Z,4.20
2023-04-25T08:45:28.986Z,4.30
2023-04-25T08:47:58.174Z,4.40
2023-04-25T08:50:27.423Z,4.70
2023-04-25T08:52:57.292Z,4.10
2023-04-25T08:55:27.705Z,4.40
2023-04-25T08:57:58.111Z,4.30
2023-04-25T09:00:25.869Z,4.10
2023-04-25T09:02:53.955Z,3.70
2023-04-25T09:05:21.936Z,3.70
2023-04-25T09:07:53.335Z,3.60
2023-04-25T09:10:21.081Z,3.10
2023-04-25T09:13:06.660Z,3.40
2023-04-25T09:15:59.046Z,3.20
2023-04-25T09:18:38.712Z,3.70
2023-04-25T09:21:13.607Z,3.60
2023-04-25T09:23:50.831Z,3.50
2023-04-25T09:26:20.963Z,3.70
2023-04-25T09:28:49.118Z,3.60
2023-04-25T09:31:27.698Z,4.00
2023-04-25T09:34:02.641Z,3.90
2023-04-25T09:36:37.346Z,3.70
2023-04-25T09:39:22.486Z,3.20
2023-04-25T09:42:00.372Z,3.00
2023-04-25T09:44:28.136Z,3.00
2023-04-25T09:46:56.249Z,3.40
2023-04-25T09:49:27.156Z,3.50
2023-04-25T09:52:06.920Z,4.10
2023-04-25T09:54:44.778Z,4.00
2023-04-25T09:57:18.407Z,4.00
2023-04-25T09:59:51.236Z,3.70
2023-04-25T10:02:22.920Z,4.20
2023-04-25T10:04:56.245Z,4.10
2023-04-25T10:07:31.357Z,3.80
2023-04-25T10:10:02.711Z,3.80
2023-04-25T10:12:34.458Z,3.60
2023-04-25T10:15:04.379Z,4.30
2023-04-25T10:17:33.473Z,4.50
2023-04-25T10:20:06.044Z,4.10
2023-04-25T10:22:35.865Z,4.40
2023-04-25T10:25:07.194Z,4.00
2023-04-25T10:27:35.365Z,4.10
2023-04-25T10:30:24.513Z,3.80
2023-04-25T10:32:55.967Z,3.80
2023-04-25T10:35:29.477Z,4.30
2023-04-25T10:38:10.590Z,4.00
2023-04-25T10:40:38.203Z,4.30
2023-04-25T10:43:36.338Z,4.00
2023-04-25T10:46:20.429Z,5.30
2023-04-25T10:48:57.646Z,4.30
2023-04-25T10:51:29.538Z,3.90
2023-04-25T10:54:08.596Z,4.00
2023-04-25T10:56:41.700Z,4.40
2023-04-25T10:59:11.225Z,5.00
2023-04-25T11:01:41.130Z,4.30
2023-04-25T11:04:22.551Z,4.60
2023-04-25T11:07:08.934Z,4.70
2023-04-25T11:09:39.594Z,4.60
2023-04-25T11:12:09.121Z,4.30
2023-04-25T11:14:36.958Z,4.20
2023-04-25T11:17:04.594Z,4.50
2023-04-25T11:19:32.661Z,5.30
2023-04-25T11:22:01.869Z,4.50
2023-04-25T11:24:31.203Z,5.20
2023-04-25T11:26:59.866Z,5.00
2023-04-25T11:29:28.619Z,5.40
2023-04-25T11:31:59.373Z,5.10
2023-04-25T11:34:28.107Z,4.90
2023-04-25T11:36:55.705Z,5.60
2023-04-25T11:39:25.891Z,5.40
2023-04-25T11:41:54.275Z,5.40
2023-04-25T11:44:22.708Z,4.90
2023-04-25T11:46:50.397Z,5.50
2023-04-25T11:49:20.778Z,5.50
2023-04-25T11:51:49.281Z,5.00
2023-04-25T11:54:17.295Z,4.70
2023-04-25T11:56:45.812Z,4.50
2023-04-25T11:59:14.253Z,5.10
2023-04-25T12:01:49.411Z,4.60
2023-04-25T12:04:22.081Z,4.70
2023-04-25T12:06:55.659Z,5.50
2023-04-25T12:09:31.900Z,5.20
2023-04-25T12:12:04.506Z,5.50
2023-04-25T12:14:35.743Z,5.40
2023-04-25T12:17:06.318Z,5.20
2023-04-25T12:19:35.852Z,5.10
2023-04-25T12:22:04.509Z,5.30
2023-04-25T12:24:37.758Z,4.90
2023-04-25T12:27:09.400Z,4.30
2023-04-25T12:32:07.889Z,4.30
2023-04-25T12:34:36.996Z,4.80
2023-04-25T12:37:04.785Z,4.90
2023-04-25T12:39:32.421Z,4.30
2023-04-25T12:42:00.779Z,4.80
2023-04-25T12:44:28.427Z,5.00
2023-04-25T12:46:56.228Z,5.50
2023-04-25T12:49:24.385Z,5.30
2023-04-25T12:51:52.783Z,6.10
2023-04-25T12:54:20.770Z,6.10
2023-04-25T12:56:48.927Z,8.90
2023-04-25T12:59:16.608Z,28.40
2023-04-25T13:01:45.351Z,8.40
2023-04-25T13:04:13.511Z,22.70
2023-04-25T13:06:41.238Z,13.50
2023-04-25T13:09:09.513Z,6.70
2023-04-25T13:11:37.281Z,5.10
2023-04-25T13:14:05.828Z,5.20
2023-04-25T13:16:34.096Z,4.80
2023-04-25T13:19:01.929Z,5.90
2023-04-25T13:21:31.919Z,3.90
2023-04-25T13:23:59.524Z,4.80
2023-04-25T13:26:27.207Z,5.30
2023-04-25T13:28:54.797Z,3.70
2023-04-25T13:31:22.486Z,5.70
2023-04-25T13:33:50.493Z,34.10
2023-04-25T13:36:18.391Z,4.30
2023-04-25T13:38:48.264Z,4.00
2023-04-25T13:41:19.749Z,3.60
2023-04-25T13:43:48.831Z,5.30
2023-04-25T13:46:35.243Z,5.20
2023-04-25T13:49:12.274Z,4.60
2023-04-25T13:51:41.820Z,8.00
2023-04-25T13:54:09.759Z,4.50
2023-04-25T13:56:37.731Z,4.20
2023-04-25T13:59:05.313Z,6.20
2023-04-25T14:01:35.508Z,6.60
2023-04-25T14:04:06.910Z,6.40
2023-04-25T14:06:35.170Z,6.10
2023-04-25T14:09:02.922Z,10.00
2023-04-25T14:11:30.625Z,12.90
2023-04-25T14:13:58.285Z,23.50
2023-04-25T14:16:26.022Z,53.30
2023-04-25T14:18:55.420Z,55.10
2023-04-25T14:21:23.134Z,15.10
2023-04-25T14:23:50.987Z,11.50
2023-04-25T14:26:19.273Z,10.70
2023-04-25T14:28:46.924Z,13.10
2023-04-25T14:31:14.615Z,10.60
2023-04-25T14:33:43.776Z,8.70
2023-04-25T14:36:12.060Z,10.50
2023-04-25T14:38:39.846Z,10.90
2023-04-25T14:41:07.527Z,7.80
2023-04-25T14:43:35.161Z,6.80
2023-04-25T14:46:03.535Z,8.80
2023-04-25T14:48:31.261Z,21.40
2023-04-25T14:50:59.092Z,28.20
2023-04-25T14:53:27.868Z,29.30
2023-04-25T14:55:55.491Z,29.40
2023-04-25T14:58:23.839Z,24.20
2023-04-25T15:00:51.634Z,24.00
2023-04-25T15:03:20.157Z,24.20
2023-04-25T15:05:48.137Z,29.70
2023-04-25T15:08:15.736Z,19.00
2023-04-25T15:10:43.637Z,14.60
2023-04-25T15:13:11.647Z,12.40
2023-04-25T15:15:39.382Z,11.80
2023-04-25T15:18:07.041Z,9.50
2023-04-25T15:20:35.780Z,9.10
2023-04-25T15:23:04.526Z,9.30
2023-04-25T15:25:32.307Z,7.90
2023-04-25T15:28:00.951Z,8.30
2023-04-25T15:30:28.625Z,12.80
2023-04-25T15:32:56.314Z,17.00
2023-04-25T15:35:24.078Z,10.70
2023-04-25T15:37:52.305Z,8.80
2023-04-25T15:40:20.142Z,11.00
2023-04-25T15:42:52.803Z,8.00
2023-04-25T15:45:25.754Z,7.50
2023-04-25T15:47:55.373Z,6.10
2023-04-25T15:50:24.088Z,5.10
2023-04-25T15:52:52.025Z,5.80
2023-04-25T15:55:21.869Z,4.70
2023-04-25T15:57:50.531Z,5.40
2023-04-25T16:00:19.311Z,5.10
2023-04-25T16:02:48.358Z,5.00
2023-04-25T16:05:17.270Z,5.40
2023-04-25T16:07:45.894Z,6.50
2023-04-25T16:10:14.715Z,7.20
2023-04-25T16:12:42.507Z,13.20
2023-04-25T16:15:10.281Z,11.30
2023-04-25T16:17:38.108Z,6.50
2023-04-25T16:20:10.217Z,4.80
2023-04-25T16:22:41.832Z,4.30
2023-04-25T16:25:10.247Z,4.20
2023-04-25T16:27:39.604Z,4.00
2023-04-25T16:30:09.333Z,4.40
2023-04-25T16:32:38.210Z,6.60
2023-04-25T16:35:06.811Z,6.00
2023-04-25T16:37:34.563Z,5.70
2023-04-25T16:40:02.492Z,5.80
2023-04-25T16:42:30.121Z,6.10
2023-04-25T16:44:58.096Z,6.20
2023-04-25T16:47:26.075Z,5.80
2023-04-25T16:49:54.009Z,5.20
2023-04-25T16:52:23.628Z,5.80
2023-04-25T16:54:51.326Z,6.20
2023-04-25T16:57:18.918Z,6.50
2023-04-25T16:59:46.619Z,6.10
2023-04-25T17:02:15.113Z,5.90
2023-04-25T17:04:43.054Z,6.80
2023-04-25T17:07:10.960Z,6.40
2023-04-25T17:09:39.037Z,6.60
2023-04-25T17:12:07.081Z,7.30
2023-04-25T17:14:35.953Z,7.30
2023-04-25T17:17:04.142Z,8.20
2023-04-25T17:19:32.161Z,7.80
2023-04-25T17:21:59.867Z,7.50
2023-04-25T17:24:27.456Z,8.60
2023-04-25T17:26:57.197Z,9.50
2023-04-25T17:29:24.850Z,8.90
2023-04-25T17:31:53.517Z,10.40
2023-04-25T17:34:22.177Z,9.10
2023-04-25T17:36:50.135Z,9.40
2023-04-25T17:39:17.906Z,9.50
2023-04-25T17:41:45.759Z,9.70
2023-04-25T17:44:13.417Z,10.00
2023-04-25T17:46:41.473Z,9.80
2023-04-25T17:49:09.389Z,10.40
2023-04-25T17:51:37.402Z,10.60
2023-04-25T17:54:05.074Z,9.70
2023-04-25T17:56:36.345Z,12.00
2023-04-25T17:59:04.761Z,14.20
2023-04-25T18:01:32.510Z,11.40
2023-04-25T18:04:00.844Z,28.50
2023-04-25T18:06:29.370Z,15.00
2023-04-25T18:08:57.224Z,11.40
2023-04-25T18:11:25.525Z,11.20
2023-04-25T18:13:53.398Z,10.70
2023-04-25T18:16:21.583Z,14.90
2023-04-25T18:18:53.710Z,15.20
2023-04-25T18:21:21.940Z,9.90
2023-04-25T18:23:49.770Z,10.80
2023-04-25T18:26:18.181Z,10.20
2023-04-25T18:28:45.833Z,10.90
2023-04-25T18:31:14.074Z,10.80
2023-04-25T18:33:42.773Z,11.10
2023-04-25T18:36:10.424Z,12.60
2023-04-25T18:38:38.011Z,12.20
2023-04-25T18:41:15.486Z,13.00
2023-04-25T18:43:55.594Z,12.50
2023-04-25T18:46:23.545Z,13.20
2023-04-25T18:48:55.390Z,14.60
2023-04-25T18:51:24.313Z,18.70
2023-04-25T18:53:52.176Z,21.20
2023-04-25T18:56:22.622Z,12.40
2023-04-25T18:58:51.699Z,11.40
2023-04-25T19:01:20.726Z,14.20
2023-04-25T19:03:56.961Z,18.00
2023-04-25T19:06:28.028Z,12.20
2023-04-25T19:08:57.533Z,10.90
2023-04-25T19:11:25.336Z,14.90
2023-04-25T19:13:56.629Z,12.50
2023-04-25T19:16:26.433Z,11.40
2023-04-25T19:18:56.400Z,12.20
2023-04-25T19:21:24.086Z,12.80
2023-04-25T19:23:54.092Z,9.30
2023-04-25T19:26:22.620Z,8.70
2023-04-25T19:29:05.231Z,8.40
2023-04-25T19:31:37.072Z,8.80
2023-04-25T19:34:06.095Z,9.70
2023-04-25T19:36:34.392Z,9.30
2023-04-25T19:39:02.775Z,12.10
2023-04-25T19:41:36.994Z,11.20
2023-04-25T19:44:07.203Z,10.50
2023-04-25T19:46:36.315Z,8.70
2023-04-25T19:49:07.681Z,8.80
2023-04-25T19:51:36.646Z,9.60
2023-04-25T19:54:04.727Z,7.20
2023-04-25T19:56:32.728Z,6.60
2023-04-25T19:59:00.693Z,7.50
2023-04-25T20:01:28.904Z,6.60
2023-04-25T20:03:56.822Z,6.30
2023-04-25T20:06:24.851Z,6.60
2023-04-25T20:08:55.873Z,6.60
2023-04-25T20:11:23.791Z,6.60
2023-04-25T20:13:51.586Z,7.20
2023-04-25T20:16:21.043Z,6.10
2023-04-25T20:18:49.124Z,6.80
2023-04-25T20:21:17.208Z,7.00
2023-04-25T20:23:45.933Z,7.90
2023-04-25T20:26:14.155Z,7.10
2023-04-25T20:28:41.946Z,8.20
2023-04-25T20:31:10.887Z,8.10
2023-04-25T20:33:38.830Z,8.20
2023-04-25T20:36:06.706Z,9.00
2023-04-25T20:38:34.340Z,9.10
2023-04-25T20:41:02.155Z,9.90
2023-04-25T20:43:31.286Z,8.30
2023-04-25T20:46:00.034Z,8.10
2023-04-25T20:48:27.771Z,8.10
2023-04-25T20:50:55.522Z,8.80
2023-04-25T20:53:23.207Z,9.10
2023-04-25T20:55:50.881Z,7.40
2023-04-25T20:58:18.503Z,9.30
2023-04-25T21:00:47.482Z,7.70
2023-04-25T21:03:16.104Z,7.20
2023-04-25T21:05:43.914Z,7.80
2023-04-25T21:08:11.556Z,7.10
2023-04-25T21:10:39.281Z,7.20
2023-04-25T21:13:07.414Z,6.50
2023-04-25T21:15:35.204Z,6.10
2023-04-25T21:18:02.903Z,7.00
2023-04-25T21:20:30.760Z,5.90
2023-04-25T21:22:59.262Z,6.60
2023-04-25T21:25:31.424Z,6.70
2023-04-25T21:27:59.899Z,6.40
2023-04-25T21:30:27.884Z,7.90
2023-04-25T21:32:56.402Z,8.00
2023-04-25T21:35:24.463Z,8.10
2023-04-25T21:37:52.561Z,8.00
2023-04-25T21:40:20.879Z,10.70
2023-04-25T21:42:51.842Z,8.60
2023-04-25T21:45:20.232Z,7.70
2023-04-25T21:47:48.309Z,7.20
2023-04-25T21:50:17.062Z,6.90
2023-04-25T21:52:44.837Z,6.40
2023-04-25T21:55:12.685Z,7.00
2023-04-25T21:57:41.101Z,7.20
2023-04-25T22:00:24.529Z,7.10
2023-04-25T22:02:52.658Z,7.00
2023-04-25T22:05:22.473Z,6.50
2023-04-25T22:07:51.479Z,6.80
2023-04-25T22:10:21.123Z,5.70
2023-04-25T22:12:50.931Z,5.70
2023-04-25T22:15:19.378Z,5.50
2023-04-25T22:17:47.441Z,5.80
2023-04-25T22:20:15.630Z,5.60
2023-04-25T22:22:47.061Z,6.00
2023-04-25T22:25:15.351Z,5.20
2023-04-25T22:27:43.797Z,5.70
2023-04-25T22:30:15.073Z,5.00
2023-04-25T22:32:43.259Z,5.40
2023-04-25T22:35:11.709Z,5.30
2023-04-25T22:37:41.433Z,5.50
2023-04-25T22:40:10.459Z,5.40
2023-04-25T22:42:39.882Z,5.00
2023-04-25T22:45:08.863Z,5.30
2023-04-25T22:47:37.850Z,5.10
2023-04-25T22:50:12.451Z,5.20
2023-04-25T22:52:40.581Z,5.50
2023-04-25T22:55:08.408Z,5.70
2023-04-25T22:57:39.518Z,5.00
2023-04-25T23:00:15.594Z,5.50
2023-04-25T23:02:45.888Z,5.90
2023-04-25T23:05:15.384Z,5.70
2023-04-25T23:07:44.846Z,5.20
2023-04-25T23:10:14.079Z,5.10
2023-04-25T23:12:42.340Z,5.40
2023-04-25T23:15:10.846Z,5.10
2023-04-25T23:17:38.917Z,4.60
2023-04-25T23:20:07.847Z,5.00
2023-04-25T23:22:36.103Z,5.20
2023-04-25T23:25:04.113Z,4.90
2023-04-25T23:27:31.745Z,4.70
2023-04-25T23:29:59.330Z,5.20
2023-04-25T23:32:27.162Z,4.50
2023-04-25T23:34:55.191Z,4.70
2023-04-25T23:37:23.055Z,4.60
2023-04-25T23:39:51.243Z,4.90
2023-04-25T23:42:18.916Z,4.40
2023-04-25T23:44:46.573Z,4.60
2023-04-25T23:47:17.558Z,4.40
2023-04-25T23:49:45.820Z,4.40
2023-04-25T23:52:13.518Z,4.00
2023-04-25T23:54:41.127Z,4.00
2023-04-25T23:57:08.756Z,4.30
2023-04-25T23:59:36.415Z,5.20
